createdAt,value
2023-05-20T00:01:14.395Z,78.20
2023-05-20T00:04:56.406Z,78.50
2023-05-20T00:08:38.221Z,78.50
2023-05-20T00:12:20.000Z,78.70
2023-05-20T00:16:02.103Z,78.80
2023-05-20T00:19:43.888Z,78.90
2023-05-20T00:23:25.662Z,78.90
2023-05-20T00:27:07.432Z,79.10
2023-05-20T00:30:51.639Z,79.20
2023-05-20T00:34:33.649Z,79.30
2023-05-20T00:38:15.416Z,79.50
2023-05-20T00:42:00.461Z,79.40
2023-05-20T00:45:42.466Z,79.60
2023-05-20T00:49:24.481Z,79.60
2023-05-20T00:53:06.859Z,79.80
2023-05-20T00:56:48.693Z,79.90
2023-05-20T01:00:30.618Z,79.70
2023-05-20T01:04:12.447Z,79.80
2023-05-20T01:07:54.387Z,79.80
2023-05-20T01:11:42.946Z,79.80
2023-05-20T01:15:27.606Z,80.30
2023-05-20T01:19:34.095Z,79.90
2023-05-20T01:23:17.102Z,81.00
2023-05-20T01:26:59.122Z,79.40
2023-05-20T01:30:52.409Z,79.40
2023-05-20T01:34:36.323Z,80.50
2023-05-20T01:38:20.424Z,79.40
2023-05-20T01:42:03.528Z,79.80
2023-05-20T01:45:45.451Z,79.60
2023-05-20T01:49:27.474Z,79.60
2023-05-20T01:53:09.735Z,79.40
2023-05-20T01:56:51.589Z,79.30
2023-05-20T02:00:34.439Z,79.10
2023-05-20T02:04:18.902Z,78.90
2023-05-20T02:08:00.643Z,78.70
2023-05-20T02:11:42.456Z,79.20
2023-05-20T02:15:24.219Z,78.30
2023-05-20T02:19:06.073Z,78.30
2023-05-20T02:22:47.905Z,78.30
2023-05-20T02:26:30.043Z,78.20
2023-05-20T02:30:12.047Z,78.20
2023-05-20T02:33:53.865Z,78.10
2023-05-20T02:37:35.841Z,78.00
2023-05-20T02:41:17.611Z,78.00
2023-05-20T02:44:59.364Z,78.00
2023-05-20T02:48:41.202Z,77.90
2023-05-20T02:52:23.140Z,78.00
2023-05-20T02:56:05.137Z,78.00
2023-05-20T02:59:46.948Z,78.10
2023-05-20T03:03:28.835Z,78.10
2023-05-20T03:07:10.578Z,78.10
2023-05-20T03:10:52.355Z,78.20
2023-05-20T03:14:34.106Z,78.90
2023-05-20T03:18:15.935Z,78.30
2023-05-20T03:21:58.074Z,79.00
2023-05-20T03:25:40.686Z,78.40
2023-05-20T03:29:23.540Z,78.60
2023-05-20T03:33:05.985Z,78.80
2023-05-20T03:36:47.860Z,78.70
2023-05-20T03:40:29.766Z,78.80
2023-05-20T03:44:11.572Z,79.50
2023-05-20T03:47:53.329Z,78.90
2023-05-20T03:51:35.106Z,78.90
2023-05-20T03:55:17.076Z,79.00
2023-05-20T03:58:58.801Z,79.00
2023-05-20T04:02:40.937Z,79.20
2023-05-20T04:06:22.875Z,79.20
2023-05-20T04:10:05.512Z,79.30
2023-05-20T04:13:47.295Z,79.20
2023-05-20T04:17:32.398Z,79.40
2023-05-20T04:21:14.966Z,79.50
2023-05-20T04:24:56.879Z,79.60
2023-05-20T04:28:38.951Z,79.60
2023-05-20T04:32:21.100Z,79.80
2023-05-20T04:36:03.104Z,79.90
2023-05-20T04:39:44.883Z,80.00
2023-05-20T04:43:29.957Z,80.10
2023-05-20T04:47:12.144Z,80.30
2023-05-20T04:50:54.423Z,80.50
2023-05-20T04:54:36.194Z,80.70
2023-05-20T04:58:18.120Z,80.90
2023-05-20T05:01:59.995Z,80.90
2023-05-20T05:05:42.328Z,80.90
2023-05-20T05:09:24.129Z,80.90
2023-05-20T05:13:06.045Z,81.00
2023-05-20T05:16:47.814Z,81.10
2023-05-20T05:20:29.533Z,81.10
2023-05-20T05:24:11.346Z,81.20
2023-05-20T05:27:55.228Z,81.40
2023-05-20T05:31:37.043Z,81.50
2023-05-20T05:35:19.140Z,81.80
2023-05-20T05:39:01.023Z,81.80
2023-05-20T05:42:42.892Z,81.50
2023-05-20T05:46:24.927Z,81.00
2023-05-20T05:50:06.933Z,80.30
2023-05-20T05:53:48.697Z,80.00
2023-05-20T05:57:30.732Z,79.90
2023-05-20T06:01:12.480Z,80.00
2023-05-20T06:04:54.260Z,79.90
2023-05-20T06:08:36.107Z,79.60
2023-05-20T06:12:17.881Z,79.20
2023-05-20T06:15:59.599Z,79.80
2023-05-20T06:19:41.552Z,78.70
2023-05-20T06:23:23.357Z,78.20
2023-05-20T06:27:05.670Z,77.70
2023-05-20T06:30:47.452Z,77.50
2023-05-20T06:34:29.216Z,77.50
2023-05-20T06:38:10.986Z,77.10
2023-05-20T06:41:52.785Z,76.50
2023-05-20T06:45:34.866Z,76.10
2023-05-20T06:49:16.859Z,76.00
2023-05-20T06:52:58.654Z,75.80
2023-05-20T06:56:40.458Z,74.80
2023-05-20T07:00:22.391Z,74.80
2023-05-20T07:04:04.368Z,74.40
2023-05-20T07:07:46.264Z,74.10
2023-05-20T07:11:28.048Z,73.80
2023-05-20T07:15:10.213Z,73.80
2023-05-20T07:18:52.029Z,73.70
2023-05-20T07:22:33.789Z,73.50
2023-05-20T07:26:16.957Z,73.50
2023-05-20T07:29:58.687Z,72.40
2023-05-20T07:33:40.450Z,72.70
2023-05-20T07:37:22.151Z,72.40
2023-05-20T07:41:04.316Z,72.30
2023-05-20T07:44:46.124Z,71.90
2023-05-20T07:48:27.905Z,71.20
2023-05-20T07:52:09.773Z,70.90
2023-05-20T07:55:51.557Z,70.50
2023-05-20T07:59:33.384Z,70.40
2023-05-20T08:03:15.254Z,70.40
2023-05-20T08:06:57.077Z,70.00
2023-05-20T08:10:38.853Z,70.00
2023-05-20T08:14:20.906Z,69.60
2023-05-20T08:18:02.791Z,69.60
2023-05-20T08:21:44.753Z,69.30
2023-05-20T08:25:26.538Z,69.20
2023-05-20T08:29:08.423Z,68.90
2023-05-20T08:32:50.292Z,68.60
2023-05-20T08:36:32.089Z,68.30
2023-05-20T08:40:14.909Z,67.80
2023-05-20T08:43:57.358Z,67.50
2023-05-20T08:47:44.893Z,67.70
2023-05-20T08:51:27.811Z,67.50
2023-05-20T08:55:22.817Z,67.60
2023-05-20T08:59:05.411Z,66.90
2023-05-20T09:02:47.479Z,67.30
2023-05-20T09:06:29.446Z,66.80
2023-05-20T09:10:11.411Z,66.70
2023-05-20T09:13:53.150Z,66.80
2023-05-20T09:17:38.869Z,66.90
2023-05-20T09:21:28.565Z,65.90
2023-05-20T09:25:12.411Z,65.50
2023-05-20T09:28:56.175Z,66.40
2023-05-20T09:32:38.361Z,67.20
2023-05-20T09:36:22.685Z,66.40
2023-05-20T09:40:06.311Z,66.40
2023-05-20T09:43:48.722Z,66.30
2023-05-20T09:47:31.558Z,66.70
2023-05-20T09:51:13.715Z,66.90
2023-05-20T09:54:56.436Z,66.90
2023-05-20T09:58:39.061Z,66.80
2023-05-20T10:02:21.038Z,67.20
2023-05-20T10:06:12.618Z,67.00
2023-05-20T10:10:33.011Z,67.20
2023-05-20T10:14:44.140Z,66.60
2023-05-20T10:18:39.778Z,66.70
2023-05-20T10:22:29.119Z,66.90
2023-05-20T10:26:11.305Z,66.90
2023-05-20T10:29:55.794Z,67.30
2023-05-20T10:33:43.531Z,66.90
2023-05-20T10:37:33.548Z,66.60
2023-05-20T10:41:21.759Z,67.10
2023-05-20T10:45:04.348Z,67.10
2023-05-20T10:48:46.220Z,67.30
2023-05-20T10:52:28.976Z,67.20
2023-05-20T10:56:18.718Z,67.20
2023-05-20T11:00:01.304Z,67.20
2023-05-20T11:03:44.690Z,67.30
2023-05-20T11:07:28.854Z,67.30
2023-05-20T11:11:14.992Z,67.00
2023-05-20T11:14:56.992Z,66.70
2023-05-20T11:18:38.828Z,67.00
2023-05-20T11:22:20.658Z,66.90
2023-05-20T11:26:02.767Z,66.90
2023-05-20T11:29:44.825Z,66.50
2023-05-20T11:33:29.290Z,66.30
2023-05-20T11:37:11.748Z,66.30
2023-05-20T11:40:55.404Z,66.30
2023-05-20T11:44:38.307Z,65.70
2023-05-20T11:48:20.300Z,65.80
2023-05-20T11:52:03.632Z,65.70
2023-05-20T11:55:46.829Z,65.20
2023-05-20T11:59:29.221Z,65.20
2023-05-20T12:03:11.737Z,64.90
2023-05-20T12:06:53.741Z,64.80
2023-05-20T12:10:37.944Z,64.60
2023-05-20T12:14:19.681Z,64.30
2023-05-20T12:18:01.883Z,64.20
2023-05-20T12:21:43.754Z,63.90
2023-05-20T12:25:25.516Z,63.90
2023-05-20T12:29:07.290Z,63.60
2023-05-20T12:32:54.092Z,63.60
2023-05-20T12:36:35.862Z,62.80
2023-05-20T12:40:17.619Z,62.80
2023-05-20T12:43:59.449Z,62.40
2023-05-20T12:47:41.282Z,62.50
2023-05-20T12:51:23.056Z,62.80
2023-05-20T12:55:13.490Z,62.60
2023-05-20T12:58:55.224Z,62.40
2023-05-20T13:02:39.815Z,62.90
2023-05-20T13:06:21.987Z,62.00
2023-05-20T13:10:04.251Z,62.00
2023-05-20T13:13:46.012Z,61.70
2023-05-20T13:17:28.352Z,61.90
2023-05-20T13:21:10.160Z,61.90
2023-05-20T13:24:51.950Z,62.40
2023-05-20T13:28:33.710Z,61.80
2023-05-20T13:32:15.604Z,61.20
2023-05-20T13:35:57.424Z,60.80
2023-05-20T13:39:39.293Z,60.90
2023-05-20T13:43:21.003Z,60.30
2023-05-20T13:47:02.747Z,60.10
2023-05-20T13:50:45.395Z,60.10
2023-05-20T13:54:27.150Z,60.30
2023-05-20T13:58:09.198Z,60.50
2023-05-20T14:01:51.077Z,60.50
2023-05-20T14:05:32.873Z,60.30
2023-05-20T14:09:14.623Z,60.10
2023-05-20T14:12:58.415Z,60.00
2023-05-20T14:16:40.202Z,59.90
2023-05-20T14:20:22.305Z,60.40
2023-05-20T14:24:04.143Z,59.70
2023-05-20T14:27:45.991Z,58.80
2023-05-20T14:31:27.955Z,58.90
2023-05-20T14:35:09.956Z,58.40
2023-05-20T14:38:51.749Z,58.40
2023-05-20T14:42:34.113Z,58.60
2023-05-20T14:46:16.047Z,57.90
2023-05-20T14:49:57.916Z,57.80
2023-05-20T14:53:39.686Z,57.90
2023-05-20T14:57:21.419Z,57.60
2023-05-20T15:01:03.244Z,56.80
2023-05-20T15:04:47.674Z,56.80
2023-05-20T15:08:29.473Z,56.90
2023-05-20T15:12:11.480Z,56.80
2023-05-20T15:15:53.852Z,56.80
2023-05-20T15:19:38.419Z,56.70
2023-05-20T15:23:22.248Z,56.30
2023-05-20T15:27:04.264Z,56.00
2023-05-20T15:30:54.237Z,55.70
2023-05-20T15:34:36.093Z,54.40
2023-05-20T15:38:17.888Z,55.40
2023-05-20T15:42:02.074Z,55.10
2023-05-20T15:45:44.718Z,54.90
2023-05-20T15:49:26.509Z,54.40
2023-05-20T15:53:09.384Z,54.70
2023-05-20T15:56:51.236Z,54.70
2023-05-20T16:00:33.308Z,54.30
2023-05-20T16:04:15.474Z,54.50
2023-05-20T16:07:57.352Z,54.50
2023-05-20T16:11:39.202Z,54.30
2023-05-20T16:15:21.031Z,54.50
2023-05-20T16:19:02.873Z,54.20
2023-05-20T16:22:44.811Z,54.10
2023-05-20T16:26:26.719Z,54.70
2023-05-20T16:30:09.504Z,54.80
2023-05-20T16:33:51.167Z,54.00
2023-05-20T16:37:33.859Z,53.90
2023-05-20T16:41:16.427Z,54.10
2023-05-20T16:44:58.304Z,54.10
2023-05-20T16:48:40.311Z,54.40
2023-05-20T16:52:22.404Z,54.30
2023-05-20T16:56:06.687Z,54.30
2023-05-20T16:59:48.508Z,53.90
2023-05-20T17:03:30.737Z,54.00
2023-05-20T17:07:13.471Z,54.10
2023-05-20T17:10:55.837Z,53.90
2023-05-20T17:14:37.644Z,53.70
2023-05-20T17:18:19.409Z,54.10
2023-05-20T17:22:01.281Z,53.90
2023-05-20T17:25:43.065Z,53.80
2023-05-20T17:29:24.834Z,54.00
2023-05-20T17:33:06.624Z,53.70
2023-05-20T17:36:48.549Z,53.60
2023-05-20T17:40:30.540Z,53.70
2023-05-20T17:44:12.321Z,53.80
2023-05-20T17:47:54.201Z,53.70
2023-05-20T17:51:36.173Z,53.80
2023-05-20T17:55:18.395Z,53.90
2023-05-20T17:59:00.164Z,53.60
2023-05-20T18:02:47.226Z,53.80
2023-05-20T18:06:29.990Z,53.60
2023-05-20T18:10:11.927Z,53.60
2023-05-20T18:13:53.702Z,53.60
2023-05-20T18:17:36.318Z,53.60
2023-05-20T18:21:20.109Z,53.60
2023-05-20T18:25:02.171Z,53.70
2023-05-20T18:28:43.953Z,53.60
2023-05-20T18:32:28.444Z,53.60
2023-05-20T18:36:10.634Z,53.60
2023-05-20T18:39:52.444Z,53.70
2023-05-20T18:43:34.965Z,53.70
2023-05-20T18:47:17.107Z,53.70
2023-05-20T18:51:01.924Z,53.80
2023-05-20T18:54:43.687Z,53.70
2023-05-20T18:58:25.722Z,53.80
2023-05-20T19:02:07.741Z,54.00
2023-05-20T19:05:49.729Z,54.00
2023-05-20T19:09:31.881Z,54.20
2023-05-20T19:13:13.819Z,55.10
2023-05-20T19:16:55.853Z,54.60
2023-05-20T19:20:37.692Z,54.70
2023-05-20T19:24:19.653Z,54.90
2023-05-20T19:28:01.419Z,54.90
2023-05-20T19:31:43.270Z,55.00
2023-05-20T19:35:25.033Z,55.20
2023-05-20T19:39:07.993Z,55.20
2023-05-20T19:42:51.815Z,55.30
2023-05-20T19:46:35.978Z,55.40
2023-05-20T19:50:17.898Z,55.50
2023-05-20T19:53:59.641Z,55.60
2023-05-20T19:57:41.955Z,55.70
2023-05-20T20:01:23.763Z,55.80
2023-05-20T20:05:07.401Z,56.00
2023-05-20T20:08:49.330Z,56.10
2023-05-20T20:12:31.105Z,56.20
2023-05-20T20:16:12.956Z,56.30
2023-05-20T20:19:55.354Z,56.50
2023-05-20T20:23:37.975Z,56.70
2023-05-20T20:27:20.562Z,56.80
2023-05-20T20:31:02.441Z,57.10
2023-05-20T20:34:45.894Z,57.30
2023-05-20T20:38:27.981Z,57.50
2023-05-20T20:42:09.819Z,57.80
2023-05-20T20:45:53.058Z,57.90
2023-05-20T20:49:35.642Z,58.10
2023-05-20T20:53:17.461Z,58.30
2023-05-20T20:57:00.026Z,58.40
2023-05-20T21:00:44.488Z,58.50
2023-05-20T21:04:27.811Z,58.70
2023-05-20T21:08:09.900Z,58.80
2023-05-20T21:11:51.749Z,58.90
2023-05-20T21:15:33.633Z,59.00
2023-05-20T21:19:15.836Z,59.20
2023-05-20T21:22:57.597Z,59.30
2023-05-20T21:26:39.481Z,59.50
2023-05-20T21:30:21.223Z,59.60
2023-05-20T21:34:03.125Z,59.70
2023-05-20T21:37:44.863Z,59.80
2023-05-20T21:41:27.238Z,60.00
2023-05-20T21:45:10.136Z,60.00
2023-05-20T21:48:52.387Z,60.10
2023-05-20T21:52:34.541Z,60.10
2023-05-20T21:56:16.320Z,60.20
2023-05-20T21:59:58.381Z,60.30
2023-05-20T22:03:40.886Z,60.50
2023-05-20T22:07:22.735Z,60.70
2023-05-20T22:11:07.953Z,60.70
2023-05-20T22:14:49.784Z,60.80
2023-05-20T22:18:31.944Z,60.90
2023-05-20T22:22:14.491Z,61.10
2023-05-20T22:25:57.177Z,61.30
2023-05-20T22:29:38.946Z,61.40
2023-05-20T22:33:23.031Z,61.40
2023-05-20T22:37:09.279Z,61.60
2023-05-20T22:40:51.225Z,61.70
2023-05-20T22:44:32.971Z,61.90
2023-05-20T22:48:15.279Z,62.00
2023-05-20T22:52:02.106Z,62.20
2023-05-20T22:55:43.969Z,62.40
2023-05-20T22:59:27.177Z,62.40
2023-05-20T23:03:09.718Z,62.80
2023-05-20T23:06:53.819Z,62.80
2023-05-20T23:10:35.787Z,63.00
2023-05-20T23:14:17.586Z,63.20
2023-05-20T23:17:59.381Z,63.40
2023-05-20T23:21:41.169Z,63.50
2023-05-20T23:25:24.390Z,63.70
2023-05-20T23:29:06.330Z,63.80
2023-05-20T23:32:48.186Z,64.10
2023-05-20T23:36:30.282Z,64.30
2023-05-20T23:40:12.941Z,64.50
2023-05-20T23:43:54.673Z,64.60
2023-05-20T23:47:37.771Z,64.70
2023-05-20T23:51:19.488Z,64.90
2023-05-20T23:55:01.212Z,65.50
2023-05-20T23:58:42.972Z,64.80
